Vendinga, Russia
Current Conditions -  °F | °C
As of 9:00 AM on Friday 31 Oct 2014 (Local Time) from UUYY Reporting Station
Overcast Overcast  
Wind Chill: -4°   Ceiling: 2700
Heat Index:   Visibility: 5mi
Dew Point: -1°   Wind: 7mph
Humidity: 93%   Direction: 200°SSW
Pressure: 29.74"   Gusts: NA
Location:  63.45°N, 48°E
Report Text: UUYY 310600Z 20003MPS 8000 OVC027 M00/M01 Q1007 NOSIG 1932//49RMK QFE747/0996
Loading
Personal Weather Stations






























Interactive Weather Map
Tropical Storm Tracking
New forecast layout! Learn more

10-Day Weather Forecast

Advertisements
Track Severe Weather on mobile